Ashby, MA

8:48 AM EDT on October 21, 2014 (GMT -0400)
KMAASHBY2 | Change Station
CLOSE
Current Station
Personal Weather Station
Location: Ashby, MA
Elevation: 695 ft
Nearby Weather Stations

Elev 695 ft 42.69 °N, 71.79 °W | Updated 7 minutes ago

Overcast
Overcast
43.5 °F
Feels Like 44 °F
N
0.0
Wind Variable Wind from NNW
Gusts 1.0 mph

Today
High -- | Low -- °F
--% Chance of Precip.
Yesterday
High -- | Low -- °F
Precip. -- in
7:07 AM 5:55 PM
Waning Crescent, 6% visible
Pressure 30.00 in
Visibility 10.0 miles
Clouds Few 12000 ft
Windchill 44 °F
Dew Point 42 °F
Humidity 94%
Rainfall 0.00 in
Snow Depth Not available.
UV 0 out of 12
Pollen .30 out of 12
Air Quality Not available.
Flu Activity No Activity
METAR KFIT 211152Z AUTO 29003KT 10SM FEW120 07/04 A2999 RMK AO2 SLP158 T00720044 10083 20067 53003

More Conditions Fewer Conditions

Pressure 30.00 in
Visibility 10.0 miles
Clouds Few 12000 ft
Windchill 44 °F
Dew Point 42 °F
Humidity 94%
Rainfall 0.00 in
Snow Depth Not available.
UV 0 out of 12
Pollen .30 out of 12
Air Quality Not available.
Flu Activity No Activity
METAR KFIT 211152Z AUTO 29003KT 10SM FEW120 07/04 A2999 RMK AO2 SLP158 T00720044 10083 20067 53003

More Conditions Fewer Conditions

10-Day Weather Forecast

Almanac

Astronomy

Oct. 21, 2014 Rise Set
Actual Time 7:07 AM EDT 5:55 PM EDT
Civil Twilight 6:38 AM EDT 6:24 PM EDT
Nautical Twilight 6:05 AM EDT 6:57 PM EDT
Astronomical Twilight 5:33 AM EDT 7:29 PM EDT
Moon 4:46 AM EDT 4:50 PM EDT
Length of Visible Light 11h 45m
Length of Day
10h 47m
Tomorrow will be 2m 43s shorter.
Waning Crescent, 6% of the Moon is Illuminated
Today
Waning Crescent
Oct 23
New
Oct 30
First Quarter
Nov 6
Full
Nov 14
Last Quarter

Today's Extremes

State Highs State Lows

Community

WunderPhotos

Upload Photos

1,763,649 photos uploaded!

Nearby

Air Quality

  Air Quality AQ Index Pollutant
Tuesday Good
PM2.5
Wednesday Good
PM2.5
Thursday Good
PM2.5

Snow Depth

Station Depth Elevation
No new snow has been reported.

Earthquake Activity

City Distance Mag. Time & Date
No recent earthquake activity has been reported nearby.
Minimum magnitude displayed is 2.5.

Coastal Water Temperatures

Place Temperature
No Stations Reporting

Nearby Weather Stations